sensor_id;sensor_type;location;lat;lon;timestamp;P1;durP1;ratioP1;P2;durP2;ratioP2
25555;SDS011;13447;57.174;-2.112;2022-09-09T00:07:03;20.05;;;4.60;;
25555;SDS011;13447;57.174;-2.112;2022-09-09T00:13:16;31.52;;;5.78;;
25555;SDS011;13447;57.174;-2.112;2022-09-09T00:21:33;32.80;;;6.13;;
25555;SDS011;13447;57.174;-2.112;2022-09-09T00:24:14;32.90;;;6.25;;
25555;SDS011;13447;57.174;-2.112;2022-09-09T00:26:45;25.17;;;6.40;;
25555;SDS011;13447;57.174;-2.112;2022-09-09T00:32:17;32.42;;;6.32;;
25555;SDS011;13447;57.174;-2.112;2022-09-09T00:37:46;37.67;;;7.60;;
25555;SDS011;13447;57.174;-2.112;2022-09-09T00:43:14;45.65;;;7.05;;
25555;SDS011;13447;57.174;-2.112;2022-09-09T00:45:55;43.67;;;7.68;;
25555;SDS011;13447;57.174;-2.112;2022-09-09T00:48:33;39.25;;;7.07;;
25555;SDS011;13447;57.174;-2.112;2022-09-09T00:51:25;48.97;;;7.68;;
25555;SDS011;13447;57.174;-2.112;2022-09-09T00:54:16;43.53;;;7.72;;
25555;SDS011;13447;57.174;-2.112;2022-09-09T00:57:21;30.67;;;6.03;;
25555;SDS011;13447;57.174;-2.112;2022-09-09T01:08:01;41.33;;;7.00;;
25555;SDS011;13447;57.174;-2.112;2022-09-09T01:13:34;54.60;;;7.95;;
25555;SDS011;13447;57.174;-2.112;2022-09-09T01:16:03;34.95;;;7.18;;
25555;SDS011;13447;57.174;-2.112;2022-09-09T01:18:39;34.35;;;7.20;;
25555;SDS011;13447;57.174;-2.112;2022-09-09T01:29:01;57.22;;;8.50;;
25555;SDS011;13447;57.174;-2.112;2022-09-09T01:34:13;34.50;;;7.25;;
25555;SDS011;13447;57.174;-2.112;2022-09-09T01:36:46;40.22;;;7.10;;
25555;SDS011;13447;57.174;-2.112;2022-09-09T01:39:37;51.38;;;8.55;;
25555;SDS011;13447;57.174;-2.112;2022-09-09T01:42:08;35.60;;;6.47;;
25555;SDS011;13447;57.174;-2.112;2022-09-09T01:44:37;52.17;;;8.15;;
25555;SDS011;13447;57.174;-2.112;2022-09-09T01:47:05;46.17;;;7.38;;
25555;SDS011;13447;57.174;-2.112;2022-09-09T01:49:33;51.75;;;8.90;;
25555;SDS011;13447;57.174;-2.112;2022-09-09T01:52:00;49.65;;;8.52;;
25555;SDS011;13447;57.174;-2.112;2022-09-09T01:54:28;34.53;;;7.18;;
25555;SDS011;13447;57.174;-2.112;2022-09-09T02:02:26;37.97;;;7.63;;
25555;SDS011;13447;57.174;-2.112;2022-09-09T02:05:07;50.60;;;7.63;;
25555;SDS011;13447;57.174;-2.112;2022-09-09T02:07:54;44.38;;;7.57;;
25555;SDS011;13447;57.174;-2.112;2022-09-09T02:13:23;32.17;;;6.65;;
25555;SDS011;13447;57.174;-2.112;2022-09-09T02:16:00;35.28;;;7.35;;
25555;SDS011;13447;57.174;-2.112;2022-09-09T02:18:35;26.52;;;6.50;;
25555;SDS011;13447;57.174;-2.112;2022-09-09T02:21:31;36.55;;;6.28;;
25555;SDS011;13447;57.174;-2.112;2022-09-09T02:24:02;34.22;;;6.15;;
25555;SDS011;13447;57.174;-2.112;2022-09-09T02:26:34;57.42;;;8.18;;
25555;SDS011;13447;57.174;-2.112;2022-09-09T02:29:09;38.00;;;6.25;;
25555;SDS011;13447;57.174;-2.112;2022-09-09T02:31:41;30.67;;;5.78;;
25555;SDS011;13447;57.174;-2.112;2022-09-09T02:34:10;35.63;;;6.22;;
25555;SDS011;13447;57.174;-2.112;2022-09-09T02:36:38;39.75;;;6.53;;
25555;SDS011;13447;57.174;-2.112;2022-09-09T02:39:09;35.95;;;6.47;;
25555;SDS011;13447;57.174;-2.112;2022-09-09T02:41:38;34.72;;;5.57;;
25555;SDS011;13447;57.174;-2.112;2022-09-09T02:44:24;51.67;;;8.32;;
25555;SDS011;13447;57.174;-2.112;2022-09-09T02:47:03;44.70;;;9.23;;
25555;SDS011;13447;57.174;-2.112;2022-09-09T02:52:18;48.90;;;9.30;;
25555;SDS011;13447;57.174;-2.112;2022-09-09T02:54:54;37.72;;;7.60;;
25555;SDS011;13447;57.174;-2.112;2022-09-09T02:57:27;44.13;;;7.75;;
25555;SDS011;13447;57.174;-2.112;2022-09-09T02:59:59;39.17;;;6.60;;
25555;SDS011;13447;57.174;-2.112;2022-09-09T03:02:27;38.35;;;6.95;;
25555;SDS011;13447;57.174;-2.112;2022-09-09T03:04:54;39.53;;;6.93;;
25555;SDS011;13447;57.174;-2.112;2022-09-09T03:07:21;28.25;;;5.65;;
25555;SDS011;13447;57.174;-2.112;2022-09-09T03:09:48;66.72;;;11.07;;
25555;SDS011;13447;57.174;-2.112;2022-09-09T03:12:15;44.78;;;8.43;;
25555;SDS011;13447;57.174;-2.112;2022-09-09T03:14:42;48.90;;;9.68;;
25555;SDS011;13447;57.174;-2.112;2022-09-09T03:17:11;45.58;;;8.18;;
25555;SDS011;13447;57.174;-2.112;2022-09-09T03:19:38;53.67;;;9.05;;
25555;SDS011;13447;57.174;-2.112;2022-09-09T03:22:05;59.38;;;9.60;;
25555;SDS011;13447;57.174;-2.112;2022-09-09T03:24:32;53.95;;;8.40;;
25555;SDS011;13447;57.174;-2.112;2022-09-09T03:26:59;51.22;;;8.63;;
25555;SDS011;13447;57.174;-2.112;2022-09-09T03:29:26;40.03;;;6.60;;
25555;SDS011;13447;57.174;-2.112;2022-09-09T03:31:53;34.35;;;6.20;;
25555;SDS011;13447;57.174;-2.112;2022-09-09T03:34:20;51.97;;;8.18;;
25555;SDS011;13447;57.174;-2.112;2022-09-09T03:36:46;47.65;;;7.57;;
25555;SDS011;13447;57.174;-2.112;2022-09-09T03:39:15;44.10;;;8.73;;
25555;SDS011;13447;57.174;-2.112;2022-09-09T03:41:42;30.73;;;5.85;;
25555;SDS011;13447;57.174;-2.112;2022-09-09T03:44:11;39.55;;;6.78;;
25555;SDS011;13447;57.174;-2.112;2022-09-09T03:46:38;48.50;;;9.07;;
25555;SDS011;13447;57.174;-2.112;2022-09-09T03:49:05;47.65;;;8.80;;
25555;SDS011;13447;57.174;-2.112;2022-09-09T03:51:32;36.90;;;7.57;;
25555;SDS011;13447;57.174;-2.112;2022-09-09T03:54:02;35.10;;;7.60;;
25555;SDS011;13447;57.174;-2.112;2022-09-09T03:56:31;33.90;;;6.93;;
25555;SDS011;13447;57.174;-2.112;2022-09-09T03:58:58;49.05;;;7.65;;
25555;SDS011;13447;57.174;-2.112;2022-09-09T04:01:25;50.70;;;8.25;;
25555;SDS011;13447;57.174;-2.112;2022-09-09T04:03:52;41.60;;;7.78;;
25555;SDS011;13447;57.174;-2.112;2022-09-09T04:06:19;36.50;;;7.13;;
25555;SDS011;13447;57.174;-2.112;2022-09-09T04:08:47;49.13;;;8.68;;
25555;SDS011;13447;57.174;-2.112;2022-09-09T04:11:15;44.30;;;7.55;;
25555;SDS011;13447;57.174;-2.112;2022-09-09T04:13:42;43.83;;;7.78;;
25555;SDS011;13447;57.174;-2.112;2022-09-09T04:16:11;37.08;;;8.23;;
25555;SDS011;13447;57.174;-2.112;2022-09-09T04:18:42;24.52;;;5.72;;
25555;SDS011;13447;57.174;-2.112;2022-09-09T04:21:10;39.35;;;7.05;;
25555;SDS011;13447;57.174;-2.112;2022-09-09T04:23:38;43.47;;;8.25;;
25555;SDS011;13447;57.174;-2.112;2022-09-09T04:26:06;29.92;;;6.10;;
25555;SDS011;13447;57.174;-2.112;2022-09-09T04:28:34;25.80;;;6.47;;
25555;SDS011;13447;57.174;-2.112;2022-09-09T04:31:06;20.85;;;4.82;;
25555;SDS011;13447;57.174;-2.112;2022-09-09T04:33:36;31.88;;;6.13;;
25555;SDS011;13447;57.174;-2.112;2022-09-09T04:36:05;17.85;;;4.00;;
25555;SDS011;13447;57.174;-2.112;2022-09-09T04:38:33;34.90;;;6.40;;
25555;SDS011;13447;57.174;-2.112;2022-09-09T04:41:00;41.90;;;6.75;;
25555;SDS011;13447;57.174;-2.112;2022-09-09T04:43:27;41.20;;;7.00;;
25555;SDS011;13447;57.174;-2.112;2022-09-09T04:45:54;29.00;;;5.63;;
25555;SDS011;13447;57.174;-2.112;2022-09-09T04:48:22;51.92;;;7.65;;
25555;SDS011;13447;57.174;-2.112;2022-09-09T04:51:03;51.47;;;8.20;;
25555;SDS011;13447;57.174;-2.112;2022-09-09T04:53:31;26.58;;;5.53;;
25555;SDS011;13447;57.174;-2.112;2022-09-09T04:56:01;36.67;;;6.75;;
25555;SDS011;13447;57.174;-2.112;2022-09-09T04:58:38;22.08;;;5.45;;
25555;SDS011;13447;57.174;-2.112;2022-09-09T05:01:16;39.00;;;7.65;;
25555;SDS011;13447;57.174;-2.112;2022-09-09T05:03:45;21.95;;;4.75;;
25555;SDS011;13447;57.174;-2.112;2022-09-09T05:06:16;35.80;;;7.53;;
25555;SDS011;13447;57.174;-2.112;2022-09-09T05:08:45;24.67;;;5.57;;
25555;SDS011;13447;57.174;-2.112;2022-09-09T05:11:33;34.05;;;6.18;;
25555;SDS011;13447;57.174;-2.112;2022-09-09T05:14:02;28.80;;;6.25;;
25555;SDS011;13447;57.174;-2.112;2022-09-09T05:16:29;37.70;;;6.57;;
25555;SDS011;13447;57.174;-2.112;2022-09-09T05:18:57;18.13;;;4.95;;
25555;SDS011;13447;57.174;-2.112;2022-09-09T05:21:25;38.53;;;7.25;;
25555;SDS011;13447;57.174;-2.112;2022-09-09T05:23:52;31.90;;;5.45;;
25555;SDS011;13447;57.174;-2.112;2022-09-09T05:26:20;39.53;;;6.75;;
25555;SDS011;13447;57.174;-2.112;2022-09-09T05:28:48;52.20;;;7.88;;
25555;SDS011;13447;57.174;-2.112;2022-09-09T05:31:16;26.40;;;5.82;;
25555;SDS011;13447;57.174;-2.112;2022-09-09T05:33:45;43.70;;;7.55;;
25555;SDS011;13447;57.174;-2.112;2022-09-09T05:36:16;46.42;;;8.57;;
25555;SDS011;13447;57.174;-2.112;2022-09-09T05:38:45;44.88;;;7.82;;
25555;SDS011;13447;57.174;-2.112;2022-09-09T05:41:12;44.55;;;6.25;;
25555;SDS011;13447;57.174;-2.112;2022-09-09T05:43:42;49.70;;;8.05;;
25555;SDS011;13447;57.174;-2.112;2022-09-09T05:46:14;43.70;;;7.38;;
25555;SDS011;13447;57.174;-2.112;2022-09-09T05:48:46;41.88;;;7.32;;
25555;SDS011;13447;57.174;-2.112;2022-09-09T05:51:21;44.97;;;7.45;;
25555;SDS011;13447;57.174;-2.112;2022-09-09T05:53:50;29.38;;;5.57;;
25555;SDS011;13447;57.174;-2.112;2022-09-09T05:56:23;25.23;;;6.05;;
25555;SDS011;13447;57.174;-2.112;2022-09-09T05:58:51;52.05;;;7.90;;
25555;SDS011;13447;57.174;-2.112;2022-09-09T06:01:21;26.55;;;5.65;;
25555;SDS011;13447;57.174;-2.112;2022-09-09T06:03:48;54.10;;;8.52;;
25555;SDS011;13447;57.174;-2.112;2022-09-09T06:06:18;44.78;;;8.73;;
25555;SDS011;13447;57.174;-2.112;2022-09-09T06:08:53;32.72;;;7.10;;
25555;SDS011;13447;57.174;-2.112;2022-09-09T06:11:25;62.15;;;9.93;;
25555;SDS011;13447;57.174;-2.112;2022-09-09T06:14:00;48.38;;;8.10;;
25555;SDS011;13447;57.174;-2.112;2022-09-09T06:16:27;36.95;;;6.38;;
25555;SDS011;13447;57.174;-2.112;2022-09-09T06:18:56;49.40;;;7.63;;
25555;SDS011;13447;57.174;-2.112;2022-09-09T06:21:28;51.13;;;8.63;;
25555;SDS011;13447;57.174;-2.112;2022-09-09T06:23:59;40.45;;;7.10;;
25555;SDS011;13447;57.174;-2.112;2022-09-09T06:26:30;42.78;;;7.05;;
25555;SDS011;13447;57.174;-2.112;2022-09-09T06:29:07;54.08;;;8.35;;
25555;SDS011;13447;57.174;-2.112;2022-09-09T06:31:35;48.42;;;7.25;;
25555;SDS011;13447;57.174;-2.112;2022-09-09T06:34:07;43.28;;;7.88;;
25555;SDS011;13447;57.174;-2.112;2022-09-09T06:36:35;41.40;;;7.28;;
25555;SDS011;13447;57.174;-2.112;2022-09-09T06:39:04;33.00;;;6.05;;
25555;SDS011;13447;57.174;-2.112;2022-09-09T06:41:39;35.83;;;7.63;;
25555;SDS011;13447;57.174;-2.112;2022-09-09T06:44:07;35.15;;;6.88;;
25555;SDS011;13447;57.174;-2.112;2022-09-09T06:46:34;55.92;;;7.78;;
25555;SDS011;13447;57.174;-2.112;2022-09-09T06:49:02;50.78;;;7.45;;
25555;SDS011;13447;57.174;-2.112;2022-09-09T06:51:30;46.42;;;8.30;;
25555;SDS011;13447;57.174;-2.112;2022-09-09T06:53:59;31.13;;;6.50;;
25555;SDS011;13447;57.174;-2.112;2022-09-09T06:56:32;36.58;;;6.43;;
25555;SDS011;13447;57.174;-2.112;2022-09-09T06:59:06;35.00;;;7.28;;
25555;SDS011;13447;57.174;-2.112;2022-09-09T07:01:36;24.90;;;5.35;;
25555;SDS011;13447;57.174;-2.112;2022-09-09T07:04:07;35.72;;;7.00;;
25555;SDS011;13447;57.174;-2.112;2022-09-09T07:06:36;25.27;;;5.32;;
25555;SDS011;13447;57.174;-2.112;2022-09-09T07:09:06;37.72;;;7.07;;
25555;SDS011;13447;57.174;-2.112;2022-09-09T07:11:39;31.48;;;7.22;;
25555;SDS011;13447;57.174;-2.112;2022-09-09T07:14:08;26.08;;;5.38;;
25555;SDS011;13447;57.174;-2.112;2022-09-09T07:16:35;26.38;;;4.90;;
25555;SDS011;13447;57.174;-2.112;2022-09-09T09:17:51;28.05;;;5.00;;
25555;SDS011;13447;57.174;-2.112;2022-09-09T09:20:19;22.40;;;4.97;;
25555;SDS011;13447;57.174;-2.112;2022-09-09T09:23:09;25.02;;;4.38;;
25555;SDS011;13447;57.174;-2.112;2022-09-09T09:25:45;24.13;;;4.63;;
25555;SDS011;13447;57.174;-2.112;2022-09-09T09:28:13;19.05;;;3.80;;
25555;SDS011;13447;57.174;-2.112;2022-09-09T09:30:55;17.02;;;3.85;;
25555;SDS011;13447;57.174;-2.112;2022-09-09T09:36:07;20.40;;;3.92;;
25555;SDS011;13447;57.174;-2.112;2022-09-09T09:38:35;24.92;;;4.90;;
25555;SDS011;13447;57.174;-2.112;2022-09-09T09:41:32;25.55;;;5.38;;
25555;SDS011;13447;57.174;-2.112;2022-09-09T09:44:02;17.50;;;3.67;;
25555;SDS011;13447;57.174;-2.112;2022-09-09T09:46:31;29.27;;;5.13;;
25555;SDS011;13447;57.174;-2.112;2022-09-09T09:49:05;25.58;;;5.05;;
25555;SDS011;13447;57.174;-2.112;2022-09-09T09:51:35;23.58;;;4.63;;
25555;SDS011;13447;57.174;-2.112;2022-09-09T09:56:42;20.95;;;3.78;;
25555;SDS011;13447;57.174;-2.112;2022-09-09T10:02:24;15.35;;;3.15;;
25555;SDS011;13447;57.174;-2.112;2022-09-09T10:05:06;28.30;;;5.03;;
25555;SDS011;13447;57.174;-2.112;2022-09-09T10:07:41;21.38;;;4.05;;
25555;SDS011;13447;57.174;-2.112;2022-09-09T10:10:13;26.23;;;5.35;;
25555;SDS011;13447;57.174;-2.112;2022-09-09T10:15:44;33.08;;;5.15;;
25555;SDS011;13447;57.174;-2.112;2022-09-09T10:35:30;40.13;;;6.85;;
25555;SDS011;13447;57.174;-2.112;2022-09-09T10:38:20;21.27;;;4.93;;
25555;SDS011;13447;57.174;-2.112;2022-09-09T10:41:15;25.08;;;5.32;;
25555;SDS011;13447;57.174;-2.112;2022-09-09T10:57:06;35.40;;;5.47;;
25555;SDS011;13447;57.174;-2.112;2022-09-09T10:59:44;19.33;;;4.32;;
25555;SDS011;13447;57.174;-2.112;2022-09-09T11:07:58;34.63;;;6.05;;
25555;SDS011;13447;57.174;-2.112;2022-09-09T11:10:50;27.25;;;5.45;;
25555;SDS011;13447;57.174;-2.112;2022-09-09T11:13:23;34.58;;;5.60;;
25555;SDS011;13447;57.174;-2.112;2022-09-09T11:16:16;22.40;;;5.25;;
25555;SDS011;13447;57.174;-2.112;2022-09-09T11:19:09;25.10;;;5.47;;
25555;SDS011;13447;57.174;-2.112;2022-09-09T11:21:45;18.85;;;4.47;;
25555;SDS011;13447;57.174;-2.112;2022-09-09T11:24:26;41.38;;;6.75;;
25555;SDS011;13447;57.174;-2.112;2022-09-09T11:33:23;34.75;;;5.90;;
25555;SDS011;13447;57.174;-2.112;2022-09-09T11:39:50;25.42;;;4.95;;
25555;SDS011;13447;57.174;-2.112;2022-09-09T11:42:07;23.73;;;4.65;;
25555;SDS011;13447;57.174;-2.112;2022-09-09T11:44:46;27.10;;;5.50;;
25555;SDS011;13447;57.174;-2.112;2022-09-09T13:19:18;9.93;;;1.90;;
25555;SDS011;13447;57.174;-2.112;2022-09-09T13:21:45;10.30;;;2.22;;
25555;SDS011;13447;57.174;-2.112;2022-09-09T13:24:31;14.88;;;3.50;;
25555;SDS011;13447;57.174;-2.112;2022-09-09T13:27:00;18.77;;;3.83;;
25555;SDS011;13447;57.174;-2.112;2022-09-09T13:29:32;15.95;;;3.58;;
25555;SDS011;13447;57.174;-2.112;2022-09-09T13:32:06;16.55;;;3.75;;
25555;SDS011;13447;57.174;-2.112;2022-09-09T13:34:50;13.18;;;2.60;;
25555;SDS011;13447;57.174;-2.112;2022-09-09T13:40:04;10.15;;;2.70;;
25555;SDS011;13447;57.174;-2.112;2022-09-09T13:42:42;13.20;;;2.60;;
25555;SDS011;13447;57.174;-2.112;2022-09-09T13:45:15;12.93;;;3.17;;
25555;SDS011;13447;57.174;-2.112;2022-09-09T13:47:46;10.52;;;2.33;;
25555;SDS011;13447;57.174;-2.112;2022-09-09T13:50:19;19.23;;;4.03;;
25555;SDS011;13447;57.174;-2.112;2022-09-09T13:52:50;12.63;;;2.35;;
25555;SDS011;13447;57.174;-2.112;2022-09-09T13:55:21;12.00;;;3.08;;
25555;SDS011;13447;57.174;-2.112;2022-09-09T14:00:24;7.72;;;2.75;;
25555;SDS011;13447;57.174;-2.112;2022-09-09T14:02:51;10.63;;;2.83;;
25555;SDS011;13447;57.174;-2.112;2022-09-09T14:05:18;8.02;;;2.40;;
25555;SDS011;13447;57.174;-2.112;2022-09-09T14:07:45;22.38;;;3.80;;
25555;SDS011;13447;57.174;-2.112;2022-09-09T14:10:18;13.52;;;2.80;;
25555;SDS011;13447;57.174;-2.112;2022-09-09T14:12:45;18.98;;;2.97;;
25555;SDS011;13447;57.174;-2.112;2022-09-09T14:15:13;15.57;;;3.78;;
25555;SDS011;13447;57.174;-2.112;2022-09-09T14:17:40;20.33;;;4.25;;
25555;SDS011;13447;57.174;-2.112;2022-09-09T14:20:08;23.10;;;3.83;;
25555;SDS011;13447;57.174;-2.112;2022-09-09T14:22:37;14.82;;;3.88;;
25555;SDS011;13447;57.174;-2.112;2022-09-09T14:25:05;18.10;;;4.20;;
25555;SDS011;13447;57.174;-2.112;2022-09-09T14:27:33;13.52;;;3.08;;
25555;SDS011;13447;57.174;-2.112;2022-09-09T14:30:00;12.70;;;3.60;;
25555;SDS011;13447;57.174;-2.112;2022-09-09T14:32:27;16.42;;;3.88;;
25555;SDS011;13447;57.174;-2.112;2022-09-09T14:34:54;19.90;;;3.67;;
25555;SDS011;13447;57.174;-2.112;2022-09-09T14:37:21;17.25;;;3.50;;
25555;SDS011;13447;57.174;-2.112;2022-09-09T14:39:48;14.02;;;3.40;;
25555;SDS011;13447;57.174;-2.112;2022-09-09T14:42:16;16.95;;;3.60;;
25555;SDS011;13447;57.174;-2.112;2022-09-09T14:44:43;18.40;;;4.05;;
25555;SDS011;13447;57.174;-2.112;2022-09-09T14:47:10;20.20;;;4.25;;
25555;SDS011;13447;57.174;-2.112;2022-09-09T14:49:37;19.13;;;3.67;;
25555;SDS011;13447;57.174;-2.112;2022-09-09T14:52:08;8.50;;;2.95;;
25555;SDS011;13447;57.174;-2.112;2022-09-09T14:54:36;14.82;;;2.97;;
25555;SDS011;13447;57.174;-2.112;2022-09-09T14:57:02;8.65;;;2.50;;
25555;SDS011;13447;57.174;-2.112;2022-09-09T14:59:29;15.70;;;3.42;;
25555;SDS011;13447;57.174;-2.112;2022-09-09T15:01:56;14.32;;;3.38;;
25555;SDS011;13447;57.174;-2.112;2022-09-09T15:04:23;15.20;;;3.47;;
25555;SDS011;13447;57.174;-2.112;2022-09-09T15:06:50;13.23;;;2.92;;
25555;SDS011;13447;57.174;-2.112;2022-09-09T15:09:19;20.52;;;3.78;;
25555;SDS011;13447;57.174;-2.112;2022-09-09T15:11:46;20.98;;;3.90;;
25555;SDS011;13447;57.174;-2.112;2022-09-09T15:14:13;13.90;;;2.85;;
25555;SDS011;13447;57.174;-2.112;2022-09-09T15:16:40;12.95;;;3.53;;
25555;SDS011;13447;57.174;-2.112;2022-09-09T15:19:07;20.40;;;3.50;;
25555;SDS011;13447;57.174;-2.112;2022-09-09T15:21:35;13.73;;;3.33;;
25555;SDS011;13447;57.174;-2.112;2022-09-09T15:24:04;16.30;;;2.80;;
25555;SDS011;13447;57.174;-2.112;2022-09-09T15:26:33;17.20;;;3.30;;
25555;SDS011;13447;57.174;-2.112;2022-09-09T15:29:01;24.38;;;4.32;;
25555;SDS011;13447;57.174;-2.112;2022-09-09T15:31:29;28.05;;;3.95;;
25555;SDS011;13447;57.174;-2.112;2022-09-09T15:34:02;17.35;;;3.65;;
25555;SDS011;13447;57.174;-2.112;2022-09-09T15:36:31;18.08;;;4.43;;
25555;SDS011;13447;57.174;-2.112;2022-09-09T15:39:09;22.08;;;3.65;;
25555;SDS011;13447;57.174;-2.112;2022-09-09T15:44:13;13.95;;;3.20;;
25555;SDS011;13447;57.174;-2.112;2022-09-09T15:46:46;14.70;;;2.90;;
25555;SDS011;13447;57.174;-2.112;2022-09-09T15:49:17;17.77;;;3.15;;
25555;SDS011;13447;57.174;-2.112;2022-09-09T15:51:46;14.93;;;3.00;;
25555;SDS011;13447;57.174;-2.112;2022-09-09T15:54:22;10.07;;;2.38;;
25555;SDS011;13447;57.174;-2.112;2022-09-09T15:56:54;12.13;;;3.28;;
25555;SDS011;13447;57.174;-2.112;2022-09-09T15:59:22;16.25;;;3.00;;
25555;SDS011;13447;57.174;-2.112;2022-09-09T16:01:51;16.27;;;2.80;;
25555;SDS011;13447;57.174;-2.112;2022-09-09T16:04:18;14.40;;;2.78;;
25555;SDS011;13447;57.174;-2.112;2022-09-09T16:06:59;16.63;;;2.97;;
25555;SDS011;13447;57.174;-2.112;2022-09-09T16:09:27;15.30;;;3.22;;
25555;SDS011;13447;57.174;-2.112;2022-09-09T16:11:56;15.80;;;3.10;;
25555;SDS011;13447;57.174;-2.112;2022-09-09T16:14:25;14.65;;;3.30;;
25555;SDS011;13447;57.174;-2.112;2022-09-09T16:16:52;13.30;;;2.70;;
25555;SDS011;13447;57.174;-2.112;2022-09-09T16:19:19;18.75;;;3.92;;
25555;SDS011;13447;57.174;-2.112;2022-09-09T16:21:47;10.00;;;2.92;;
25555;SDS011;13447;57.174;-2.112;2022-09-09T16:24:16;24.55;;;4.60;;
25555;SDS011;13447;57.174;-2.112;2022-09-09T16:26:46;23.60;;;4.93;;
25555;SDS011;13447;57.174;-2.112;2022-09-09T16:29:15;22.48;;;4.10;;
25555;SDS011;13447;57.174;-2.112;2022-09-09T16:31:44;33.05;;;5.22;;
25555;SDS011;13447;57.174;-2.112;2022-09-09T16:34:13;35.70;;;5.97;;
25555;SDS011;13447;57.174;-2.112;2022-09-09T16:36:41;35.35;;;5.80;;
25555;SDS011;13447;57.174;-2.112;2022-09-09T16:39:16;22.02;;;4.57;;
25555;SDS011;13447;57.174;-2.112;2022-09-09T16:41:45;25.15;;;4.28;;
25555;SDS011;13447;57.174;-2.112;2022-09-09T16:44:14;17.63;;;3.88;;
25555;SDS011;13447;57.174;-2.112;2022-09-09T16:46:44;13.27;;;2.85;;
25555;SDS011;13447;57.174;-2.112;2022-09-09T16:49:15;12.45;;;2.45;;
25555;SDS011;13447;57.174;-2.112;2022-09-09T16:51:43;15.10;;;2.75;;
25555;SDS011;13447;57.174;-2.112;2022-09-09T16:54:14;16.35;;;2.45;;
25555;SDS011;13447;57.174;-2.112;2022-09-09T16:56:44;18.80;;;2.75;;
25555;SDS011;13447;57.174;-2.112;2022-09-09T16:59:14;14.98;;;2.67;;
25555;SDS011;13447;57.174;-2.112;2022-09-09T17:01:46;9.60;;;2.15;;
25555;SDS011;13447;57.174;-2.112;2022-09-09T17:04:18;30.92;;;5.07;;
25555;SDS011;13447;57.174;-2.112;2022-09-09T17:06:48;16.98;;;3.13;;
25555;SDS011;13447;57.174;-2.112;2022-09-09T17:09:16;22.20;;;3.95;;
25555;SDS011;13447;57.174;-2.112;2022-09-09T17:11:43;17.38;;;3.72;;
25555;SDS011;13447;57.174;-2.112;2022-09-09T17:14:13;12.35;;;2.90;;
25555;SDS011;13447;57.174;-2.112;2022-09-09T17:16:42;19.88;;;4.22;;
25555;SDS011;13447;57.174;-2.112;2022-09-09T17:19:10;10.05;;;2.78;;
25555;SDS011;13447;57.174;-2.112;2022-09-09T17:21:38;13.13;;;2.83;;
25555;SDS011;13447;57.174;-2.112;2022-09-09T17:24:28;8.95;;;2.15;;
25555;SDS011;13447;57.174;-2.112;2022-09-09T17:26:55;12.40;;;2.70;;
25555;SDS011;13447;57.174;-2.112;2022-09-09T17:29:23;11.40;;;2.30;;
25555;SDS011;13447;57.174;-2.112;2022-09-09T17:31:51;11.18;;;2.70;;
25555;SDS011;13447;57.174;-2.112;2022-09-09T17:34:18;6.95;;;1.55;;
25555;SDS011;13447;57.174;-2.112;2022-09-09T17:36:45;10.88;;;1.75;;
25555;SDS011;13447;57.174;-2.112;2022-09-09T17:39:12;10.57;;;2.10;;
25555;SDS011;13447;57.174;-2.112;2022-09-09T17:41:39;10.48;;;2.08;;
25555;SDS011;13447;57.174;-2.112;2022-09-09T17:44:06;5.32;;;1.95;;
25555;SDS011;13447;57.174;-2.112;2022-09-09T17:46:37;3.80;;;1.40;;
25555;SDS011;13447;57.174;-2.112;2022-09-09T17:49:08;17.38;;;3.13;;
25555;SDS011;13447;57.174;-2.112;2022-09-09T17:51:36;6.45;;;1.42;;
25555;SDS011;13447;57.174;-2.112;2022-09-09T17:54:05;4.88;;;1.75;;
25555;SDS011;13447;57.174;-2.112;2022-09-09T17:56:46;5.38;;;1.02;;
25555;SDS011;13447;57.174;-2.112;2022-09-09T17:59:14;4.97;;;1.38;;
25555;SDS011;13447;57.174;-2.112;2022-09-09T18:01:43;6.35;;;1.52;;
25555;SDS011;13447;57.174;-2.112;2022-09-09T18:04:13;3.05;;;1.00;;
25555;SDS011;13447;57.174;-2.112;2022-09-09T18:06:43;6.22;;;1.15;;
25555;SDS011;13447;57.174;-2.112;2022-09-09T18:09:15;4.93;;;0.68;;
25555;SDS011;13447;57.174;-2.112;2022-09-09T18:11:45;2.40;;;0.60;;
25555;SDS011;13447;57.174;-2.112;2022-09-09T18:14:16;1.33;;;0.70;;
25555;SDS011;13447;57.174;-2.112;2022-09-09T18:16:45;2.13;;;0.80;;
25555;SDS011;13447;57.174;-2.112;2022-09-09T22:19:31;1.45;;;0.70;;
25555;SDS011;13447;57.174;-2.112;2022-09-09T22:22:00;4.03;;;0.80;;
25555;SDS011;13447;57.174;-2.112;2022-09-09T22:24:27;3.00;;;1.05;;
25555;SDS011;13447;57.174;-2.112;2022-09-09T22:26:53;4.35;;;1.20;;
25555;SDS011;13447;57.174;-2.112;2022-09-09T22:29:21;3.70;;;1.23;;
25555;SDS011;13447;57.174;-2.112;2022-09-09T22:31:48;5.00;;;1.00;;
25555;SDS011;13447;57.174;-2.112;2022-09-09T22:34:15;4.57;;;1.17;;
25555;SDS011;13447;57.174;-2.112;2022-09-09T22:36:43;2.45;;;0.93;;
25555;SDS011;13447;57.174;-2.112;2022-09-09T22:39:11;2.63;;;0.85;;
25555;SDS011;13447;57.174;-2.112;2022-09-09T22:41:38;3.15;;;0.90;;
25555;SDS011;13447;57.174;-2.112;2022-09-09T22:44:06;1.00;;;0.60;;
25555;SDS011;13447;57.174;-2.112;2022-09-09T22:46:33;2.25;;;0.88;;
25555;SDS011;13447;57.174;-2.112;2022-09-09T22:49:00;2.50;;;1.08;;
25555;SDS011;13447;57.174;-2.112;2022-09-09T22:51:28;2.88;;;0.90;;
25555;SDS011;13447;57.174;-2.112;2022-09-09T22:53:55;3.45;;;1.15;;
25555;SDS011;13447;57.174;-2.112;2022-09-09T22:56:23;3.28;;;1.00;;
25555;SDS011;13447;57.174;-2.112;2022-09-09T22:58:53;3.47;;;1.40;;
25555;SDS011;13447;57.174;-2.112;2022-09-09T23:01:22;3.28;;;1.42;;
25555;SDS011;13447;57.174;-2.112;2022-09-09T23:03:50;7.65;;;1.67;;
25555;SDS011;13447;57.174;-2.112;2022-09-09T23:06:22;10.73;;;3.08;;
25555;SDS011;13447;57.174;-2.112;2022-09-09T23:08:52;5.97;;;1.92;;
25555;SDS011;13447;57.174;-2.112;2022-09-09T23:11:24;6.75;;;1.98;;
25555;SDS011;13447;57.174;-2.112;2022-09-09T23:13:57;5.22;;;1.90;;
25555;SDS011;13447;57.174;-2.112;2022-09-09T23:16:32;4.38;;;2.20;;
25555;SDS011;13447;57.174;-2.112;2022-09-09T23:19:05;3.17;;;1.88;;
25555;SDS011;13447;57.174;-2.112;2022-09-09T23:21:37;2.83;;;1.80;;
25555;SDS011;13447;57.174;-2.112;2022-09-09T23:24:05;3.55;;;1.90;;
25555;SDS011;13447;57.174;-2.112;2022-09-09T23:26:33;3.67;;;1.98;;
25555;SDS011;13447;57.174;-2.112;2022-09-09T23:29:00;8.25;;;2.63;;
25555;SDS011;13447;57.174;-2.112;2022-09-09T23:31:31;4.03;;;2.30;;
25555;SDS011;13447;57.174;-2.112;2022-09-09T23:34:03;3.75;;;2.40;;
25555;SDS011;13447;57.174;-2.112;2022-09-09T23:36:31;4.82;;;3.15;;
25555;SDS011;13447;57.174;-2.112;2022-09-09T23:38:59;4.07;;;2.08;;
25555;SDS011;13447;57.174;-2.112;2022-09-09T23:41:29;10.10;;;3.83;;
25555;SDS011;13447;57.174;-2.112;2022-09-09T23:43:58;6.85;;;4.53;;
25555;SDS011;13447;57.174;-2.112;2022-09-09T23:46:28;4.38;;;3.72;;
25555;SDS011;13447;57.174;-2.112;2022-09-09T23:48:56;7.32;;;4.13;;
25555;SDS011;13447;57.174;-2.112;2022-09-09T23:51:24;8.20;;;5.88;;
25555;SDS011;13447;57.174;-2.112;2022-09-09T23:53:54;7.03;;;5.25;;
25555;SDS011;13447;57.174;-2.112;2022-09-09T23:56:24;9.82;;;6.05;;
25555;SDS011;13447;57.174;-2.112;2022-09-09T23:58:53;6.53;;;5.45;;
